sensor_id;sensor_type;location;lat;lon;timestamp;P1;durP1;ratioP1;P2;durP2;ratioP2
25443;SDS011;13368;52.346;4.678;2024-02-26T00:00:00;13.8;;;9.6;;
25443;SDS011;13368;52.346;4.678;2024-02-26T00:05:00;15.2;;;9.7;;
25443;SDS011;13368;52.346;4.678;2024-02-26T00:10:00;17.1;;;10.6;;
25443;SDS011;13368;52.346;4.678;2024-02-26T00:15:00;24.5;;;15.3;;
25443;SDS011;13368;52.346;4.678;2024-02-26T00:20:00;20.8;;;13.5;;
25443;SDS011;13368;52.346;4.678;2024-02-26T00:25:00;19.2;;;10.9;;
25443;SDS011;13368;52.346;4.678;2024-02-26T00:30:00;17.2;;;10.9;;
25443;SDS011;13368;52.346;4.678;2024-02-26T00:35:00;16.1;;;10.2;;
25443;SDS011;13368;52.346;4.678;2024-02-26T00:40:00;16.2;;;9.8;;
25443;SDS011;13368;52.346;4.678;2024-02-26T00:45:00;15.9;;;9.2;;
25443;SDS011;13368;52.346;4.678;2024-02-26T00:50:00;18.1;;;9.8;;
25443;SDS011;13368;52.346;4.678;2024-02-26T00:55:01;16.9;;;9.6;;
25443;SDS011;13368;52.346;4.678;2024-02-26T01:00:00;15.4;;;9.8;;
25443;SDS011;13368;52.346;4.678;2024-02-26T01:05:00;13.1;;;8.6;;
25443;SDS011;13368;52.346;4.678;2024-02-26T01:10:00;15.0;;;9.0;;
25443;SDS011;13368;52.346;4.678;2024-02-26T01:15:00;15.1;;;9.2;;
25443;SDS011;13368;52.346;4.678;2024-02-26T01:20:00;17.5;;;10.0;;
25443;SDS011;13368;52.346;4.678;2024-02-26T01:25:00;14.4;;;9.1;;
25443;SDS011;13368;52.346;4.678;2024-02-26T01:30:00;14.2;;;9.0;;
25443;SDS011;13368;52.346;4.678;2024-02-26T01:35:00;14.4;;;9.0;;
25443;SDS011;13368;52.346;4.678;2024-02-26T01:40:00;14.5;;;8.9;;
25443;SDS011;13368;52.346;4.678;2024-02-26T01:45:00;13.7;;;8.8;;
25443;SDS011;13368;52.346;4.678;2024-02-26T01:50:00;15.5;;;9.1;;
25443;SDS011;13368;52.346;4.678;2024-02-26T01:55:00;15.5;;;9.2;;
25443;SDS011;13368;52.346;4.678;2024-02-26T02:00:00;17.9;;;9.5;;
25443;SDS011;13368;52.346;4.678;2024-02-26T02:05:00;14.9;;;9.2;;
25443;SDS011;13368;52.346;4.678;2024-02-26T02:10:00;17.3;;;9.3;;
25443;SDS011;13368;52.346;4.678;2024-02-26T02:15:00;18.0;;;10.1;;
25443;SDS011;13368;52.346;4.678;2024-02-26T02:20:00;16.7;;;9.5;;
25443;SDS011;13368;52.346;4.678;2024-02-26T02:25:00;17.2;;;10.5;;
25443;SDS011;13368;52.346;4.678;2024-02-26T02:30:00;17.0;;;10.0;;
25443;SDS011;13368;52.346;4.678;2024-02-26T02:35:00;19.2;;;11.3;;
25443;SDS011;13368;52.346;4.678;2024-02-26T02:40:00;18.3;;;10.2;;
25443;SDS011;13368;52.346;4.678;2024-02-26T02:45:00;18.9;;;11.9;;
25443;SDS011;13368;52.346;4.678;2024-02-26T02:50:00;20.6;;;12.3;;
25443;SDS011;13368;52.346;4.678;2024-02-26T02:55:00;21.2;;;11.5;;
25443;SDS011;13368;52.346;4.678;2024-02-26T03:00:00;19.3;;;11.2;;
25443;SDS011;13368;52.346;4.678;2024-02-26T03:05:00;18.7;;;11.1;;
25443;SDS011;13368;52.346;4.678;2024-02-26T03:10:00;22.9;;;12.2;;
25443;SDS011;13368;52.346;4.678;2024-02-26T03:15:00;21.2;;;12.5;;
25443;SDS011;13368;52.346;4.678;2024-02-26T03:20:00;20.6;;;11.8;;
25443;SDS011;13368;52.346;4.678;2024-02-26T03:25:00;19.7;;;11.4;;
25443;SDS011;13368;52.346;4.678;2024-02-26T03:30:00;18.8;;;11.4;;
25443;SDS011;13368;52.346;4.678;2024-02-26T03:35:00;18.5;;;11.1;;
25443;SDS011;13368;52.346;4.678;2024-02-26T03:40:00;21.0;;;11.8;;
25443;SDS011;13368;52.346;4.678;2024-02-26T03:45:00;21.1;;;12.2;;
25443;SDS011;13368;52.346;4.678;2024-02-26T03:50:00;20.2;;;11.7;;
25443;SDS011;13368;52.346;4.678;2024-02-26T03:55:00;20.5;;;11.2;;
25443;SDS011;13368;52.346;4.678;2024-02-26T04:00:00;20.5;;;11.9;;
25443;SDS011;13368;52.346;4.678;2024-02-26T04:05:00;20.9;;;11.9;;
25443;SDS011;13368;52.346;4.678;2024-02-26T04:10:00;23.2;;;12.0;;
25443;SDS011;13368;52.346;4.678;2024-02-26T04:15:00;18.9;;;10.5;;
25443;SDS011;13368;52.346;4.678;2024-02-26T04:20:00;23.9;;;12.9;;
25443;SDS011;13368;52.346;4.678;2024-02-26T04:25:00;22.4;;;13.2;;
25443;SDS011;13368;52.346;4.678;2024-02-26T04:30:00;23.5;;;13.1;;
25443;SDS011;13368;52.346;4.678;2024-02-26T04:35:00;25.6;;;13.7;;
25443;SDS011;13368;52.346;4.678;2024-02-26T04:40:00;24.0;;;13.6;;
25443;SDS011;13368;52.346;4.678;2024-02-26T04:45:00;27.2;;;14.6;;
25443;SDS011;13368;52.346;4.678;2024-02-26T04:50:00;25.2;;;14.3;;
25443;SDS011;13368;52.346;4.678;2024-02-26T04:55:00;28.0;;;14.7;;
25443;SDS011;13368;52.346;4.678;2024-02-26T05:00:00;27.0;;;14.7;;
25443;SDS011;13368;52.346;4.678;2024-02-26T05:05:00;27.5;;;14.9;;
25443;SDS011;13368;52.346;4.678;2024-02-26T05:10:00;28.2;;;16.2;;
25443;SDS011;13368;52.346;4.678;2024-02-26T05:15:00;30.5;;;16.4;;
25443;SDS011;13368;52.346;4.678;2024-02-26T05:20:00;28.2;;;15.4;;
25443;SDS011;13368;52.346;4.678;2024-02-26T05:25:00;29.8;;;17.0;;
25443;SDS011;13368;52.346;4.678;2024-02-26T05:30:00;33.3;;;16.8;;
25443;SDS011;13368;52.346;4.678;2024-02-26T05:35:00;30.8;;;16.8;;
25443;SDS011;13368;52.346;4.678;2024-02-26T05:40:00;30.5;;;16.7;;
25443;SDS011;13368;52.346;4.678;2024-02-26T05:45:00;30.1;;;16.0;;
25443;SDS011;13368;52.346;4.678;2024-02-26T05:50:00;28.6;;;15.1;;
25443;SDS011;13368;52.346;4.678;2024-02-26T05:55:00;28.9;;;15.2;;
25443;SDS011;13368;52.346;4.678;2024-02-26T06:00:00;27.0;;;14.7;;
25443;SDS011;13368;52.346;4.678;2024-02-26T06:05:00;24.8;;;14.2;;
25443;SDS011;13368;52.346;4.678;2024-02-26T06:10:00;21.1;;;13.1;;
25443;SDS011;13368;52.346;4.678;2024-02-26T06:15:00;23.2;;;14.0;;
25443;SDS011;13368;52.346;4.678;2024-02-26T06:20:00;21.3;;;12.7;;
25443;SDS011;13368;52.346;4.678;2024-02-26T06:25:00;23.2;;;12.5;;
25443;SDS011;13368;52.346;4.678;2024-02-26T06:30:00;21.5;;;12.6;;
25443;SDS011;13368;52.346;4.678;2024-02-26T06:35:00;18.4;;;10.9;;
25443;SDS011;13368;52.346;4.678;2024-02-26T06:40:00;20.9;;;11.1;;
25443;SDS011;13368;52.346;4.678;2024-02-26T06:45:00;18.7;;;10.4;;
25443;SDS011;13368;52.346;4.678;2024-02-26T06:50:00;16.7;;;10.5;;
25443;SDS011;13368;52.346;4.678;2024-02-26T06:55:00;17.2;;;9.5;;
25443;SDS011;13368;52.346;4.678;2024-02-26T07:00:00;15.5;;;8.8;;
25443;SDS011;13368;52.346;4.678;2024-02-26T07:05:00;16.5;;;8.9;;
25443;SDS011;13368;52.346;4.678;2024-02-26T07:10:00;14.8;;;8.8;;
25443;SDS011;13368;52.346;4.678;2024-02-26T07:15:00;12.5;;;8.3;;
25443;SDS011;13368;52.346;4.678;2024-02-26T07:20:00;13.9;;;8.7;;
25443;SDS011;13368;52.346;4.678;2024-02-26T07:25:00;15.2;;;9.0;;
25443;SDS011;13368;52.346;4.678;2024-02-26T07:30:00;14.5;;;8.5;;
25443;SDS011;13368;52.346;4.678;2024-02-26T07:35:00;12.5;;;7.6;;
25443;SDS011;13368;52.346;4.678;2024-02-26T07:40:00;11.9;;;7.0;;
25443;SDS011;13368;52.346;4.678;2024-02-26T07:45:00;11.4;;;6.7;;
25443;SDS011;13368;52.346;4.678;2024-02-26T07:50:00;11.6;;;7.1;;
25443;SDS011;13368;52.346;4.678;2024-02-26T07:55:00;10.8;;;6.4;;
25443;SDS011;13368;52.346;4.678;2024-02-26T08:00:00;10.9;;;6.5;;
25443;SDS011;13368;52.346;4.678;2024-02-26T08:05:00;10.7;;;6.4;;
25443;SDS011;13368;52.346;4.678;2024-02-26T08:10:00;9.6;;;6.4;;
25443;SDS011;13368;52.346;4.678;2024-02-26T08:15:00;10.0;;;6.2;;
25443;SDS011;13368;52.346;4.678;2024-02-26T08:20:00;10.2;;;5.6;;
25443;SDS011;13368;52.346;4.678;2024-02-26T08:25:00;8.9;;;6.0;;
25443;SDS011;13368;52.346;4.678;2024-02-26T08:30:00;10.8;;;6.1;;
25443;SDS011;13368;52.346;4.678;2024-02-26T08:35:00;8.5;;;5.5;;
25443;SDS011;13368;52.346;4.678;2024-02-26T08:40:00;8.9;;;6.0;;
25443;SDS011;13368;52.346;4.678;2024-02-26T08:45:00;8.4;;;6.0;;
25443;SDS011;13368;52.346;4.678;2024-02-26T08:50:00;8.1;;;6.2;;
25443;SDS011;13368;52.346;4.678;2024-02-26T08:55:00;9.1;;;5.9;;
25443;SDS011;13368;52.346;4.678;2024-02-26T09:00:00;9.7;;;6.0;;
25443;SDS011;13368;52.346;4.678;2024-02-26T09:05:00;10.8;;;7.1;;
25443;SDS011;13368;52.346;4.678;2024-02-26T09:10:00;12.3;;;6.2;;
25443;SDS011;13368;52.346;4.678;2024-02-26T09:15:00;7.4;;;5.5;;
25443;SDS011;13368;52.346;4.678;2024-02-26T09:20:00;9.1;;;6.3;;
25443;SDS011;13368;52.346;4.678;2024-02-26T09:25:00;10.2;;;6.0;;
25443;SDS011;13368;52.346;4.678;2024-02-26T09:30:00;8.1;;;6.1;;
25443;SDS011;13368;52.346;4.678;2024-02-26T09:35:00;9.9;;;5.9;;
25443;SDS011;13368;52.346;4.678;2024-02-26T09:40:00;11.2;;;6.2;;
25443;SDS011;13368;52.346;4.678;2024-02-26T09:45:00;10.0;;;5.8;;
25443;SDS011;13368;52.346;4.678;2024-02-26T09:50:01;7.9;;;5.6;;
25443;SDS011;13368;52.346;4.678;2024-02-26T09:55:00;10.0;;;6.1;;
25443;SDS011;13368;52.346;4.678;2024-02-26T10:00:00;12.5;;;6.9;;
25443;SDS011;13368;52.346;4.678;2024-02-26T10:05:00;8.1;;;5.9;;
25443;SDS011;13368;52.346;4.678;2024-02-26T10:10:00;9.5;;;5.6;;
25443;SDS011;13368;52.346;4.678;2024-02-26T10:15:00;7.8;;;6.2;;
25443;SDS011;13368;52.346;4.678;2024-02-26T10:20:10;8.4;;;5.9;;
25443;SDS011;13368;52.346;4.678;2024-02-26T10:25:00;8.0;;;5.8;;
25443;SDS011;13368;52.346;4.678;2024-02-26T10:30:02;10.6;;;6.0;;
25443;SDS011;13368;52.346;4.678;2024-02-26T10:35:00;9.7;;;5.5;;
25443;SDS011;13368;52.346;4.678;2024-02-26T10:40:00;8.2;;;5.6;;
25443;SDS011;13368;52.346;4.678;2024-02-26T10:45:00;7.7;;;5.6;;
25443;SDS011;13368;52.346;4.678;2024-02-26T10:50:00;9.4;;;5.3;;
25443;SDS011;13368;52.346;4.678;2024-02-26T10:55:00;7.2;;;5.0;;
25443;SDS011;13368;52.346;4.678;2024-02-26T11:00:00;9.2;;;5.6;;
25443;SDS011;13368;52.346;4.678;2024-02-26T11:05:01;10.2;;;4.9;;
25443;SDS011;13368;52.346;4.678;2024-02-26T11:10:00;10.1;;;4.2;;
25443;SDS011;13368;52.346;4.678;2024-02-26T11:15:00;5.4;;;4.2;;
25443;SDS011;13368;52.346;4.678;2024-02-26T11:20:00;8.4;;;4.3;;
25443;SDS011;13368;52.346;4.678;2024-02-26T11:25:00;9.7;;;4.7;;
25443;SDS011;13368;52.346;4.678;2024-02-26T11:30:00;7.3;;;4.9;;
25443;SDS011;13368;52.346;4.678;2024-02-26T11:35:00;7.0;;;4.5;;
25443;SDS011;13368;52.346;4.678;2024-02-26T11:40:00;7.3;;;4.3;;
25443;SDS011;13368;52.346;4.678;2024-02-26T11:45:00;6.9;;;4.4;;
25443;SDS011;13368;52.346;4.678;2024-02-26T11:50:00;6.9;;;4.7;;
25443;SDS011;13368;52.346;4.678;2024-02-26T11:55:00;9.5;;;3.7;;
25443;SDS011;13368;52.346;4.678;2024-02-26T12:00:10;5.9;;;3.8;;
25443;SDS011;13368;52.346;4.678;2024-02-26T12:05:00;9.3;;;4.4;;
25443;SDS011;13368;52.346;4.678;2024-02-26T12:15:00;7.5;;;4.1;;
25443;SDS011;13368;52.346;4.678;2024-02-26T12:20:07;7.3;;;4.6;;
25443;SDS011;13368;52.346;4.678;2024-02-26T12:25:00;5.0;;;3.6;;
25443;SDS011;13368;52.346;4.678;2024-02-26T12:30:00;5.2;;;3.8;;
25443;SDS011;13368;52.346;4.678;2024-02-26T12:35:00;6.9;;;4.5;;
25443;SDS011;13368;52.346;4.678;2024-02-26T12:40:00;9.5;;;5.0;;
25443;SDS011;13368;52.346;4.678;2024-02-26T12:45:00;7.5;;;4.7;;
25443;SDS011;13368;52.346;4.678;2024-02-26T12:50:00;7.2;;;4.5;;
25443;SDS011;13368;52.346;4.678;2024-02-26T12:55:01;8.6;;;4.9;;
25443;SDS011;13368;52.346;4.678;2024-02-26T13:00:00;6.4;;;4.1;;
25443;SDS011;13368;52.346;4.678;2024-02-26T13:05:00;7.9;;;3.7;;
25443;SDS011;13368;52.346;4.678;2024-02-26T13:10:00;9.1;;;4.5;;
25443;SDS011;13368;52.346;4.678;2024-02-26T13:15:00;7.1;;;3.7;;
25443;SDS011;13368;52.346;4.678;2024-02-26T13:20:00;5.7;;;3.7;;
25443;SDS011;13368;52.346;4.678;2024-02-26T13:25:00;5.8;;;3.6;;
25443;SDS011;13368;52.346;4.678;2024-02-26T13:30:02;5.3;;;3.8;;
25443;SDS011;13368;52.346;4.678;2024-02-26T13:35:07;5.8;;;3.8;;
25443;SDS011;13368;52.346;4.678;2024-02-26T13:40:00;5.0;;;3.6;;
25443;SDS011;13368;52.346;4.678;2024-02-26T13:45:00;6.4;;;4.1;;
25443;SDS011;13368;52.346;4.678;2024-02-26T13:50:00;6.4;;;4.1;;
25443;SDS011;13368;52.346;4.678;2024-02-26T13:55:00;7.2;;;4.6;;
25443;SDS011;13368;52.346;4.678;2024-02-26T14:00:00;6.9;;;4.4;;
25443;SDS011;13368;52.346;4.678;2024-02-26T14:05:00;7.3;;;4.7;;
25443;SDS011;13368;52.346;4.678;2024-02-26T14:10:00;10.3;;;5.3;;
25443;SDS011;13368;52.346;4.678;2024-02-26T14:15:00;7.8;;;5.4;;
25443;SDS011;13368;52.346;4.678;2024-02-26T14:20:00;8.1;;;5.1;;
25443;SDS011;13368;52.346;4.678;2024-02-26T14:25:00;9.5;;;4.9;;
25443;SDS011;13368;52.346;4.678;2024-02-26T14:30:00;9.1;;;5.2;;
25443;SDS011;13368;52.346;4.678;2024-02-26T14:35:00;8.4;;;5.4;;
25443;SDS011;13368;52.346;4.678;2024-02-26T14:40:00;9.1;;;4.6;;
25443;SDS011;13368;52.346;4.678;2024-02-26T14:45:00;10.4;;;5.4;;
25443;SDS011;13368;52.346;4.678;2024-02-26T14:50:00;8.3;;;5.4;;
25443;SDS011;13368;52.346;4.678;2024-02-26T14:55:00;10.5;;;5.8;;
25443;SDS011;13368;52.346;4.678;2024-02-26T15:00:00;8.9;;;5.7;;
25443;SDS011;13368;52.346;4.678;2024-02-26T15:05:00;14.2;;;5.3;;
25443;SDS011;13368;52.346;4.678;2024-02-26T15:10:00;10.7;;;4.9;;
25443;SDS011;13368;52.346;4.678;2024-02-26T15:15:00;7.8;;;5.2;;
25443;SDS011;13368;52.346;4.678;2024-02-26T15:20:00;11.1;;;5.4;;
25443;SDS011;13368;52.346;4.678;2024-02-26T15:25:00;11.7;;;5.7;;
25443;SDS011;13368;52.346;4.678;2024-02-26T15:30:00;10.2;;;5.1;;
25443;SDS011;13368;52.346;4.678;2024-02-26T15:35:00;8.3;;;5.4;;
25443;SDS011;13368;52.346;4.678;2024-02-26T15:40:00;8.4;;;4.9;;
25443;SDS011;13368;52.346;4.678;2024-02-26T15:45:00;12.2;;;5.5;;
25443;SDS011;13368;52.346;4.678;2024-02-26T15:50:00;13.6;;;5.5;;
25443;SDS011;13368;52.346;4.678;2024-02-26T15:55:00;9.2;;;5.6;;
25443;SDS011;13368;52.346;4.678;2024-02-26T16:00:00;9.0;;;5.2;;
25443;SDS011;13368;52.346;4.678;2024-02-26T16:05:00;11.6;;;5.9;;
25443;SDS011;13368;52.346;4.678;2024-02-26T16:10:00;10.4;;;6.2;;
25443;SDS011;13368;52.346;4.678;2024-02-26T16:15:00;10.2;;;6.0;;
25443;SDS011;13368;52.346;4.678;2024-02-26T16:20:00;9.7;;;5.1;;
25443;SDS011;13368;52.346;4.678;2024-02-26T16:25:00;9.5;;;4.7;;
25443;SDS011;13368;52.346;4.678;2024-02-26T16:30:00;9.5;;;5.7;;
25443;SDS011;13368;52.346;4.678;2024-02-26T16:35:00;9.3;;;5.1;;
25443;SDS011;13368;52.346;4.678;2024-02-26T16:40:00;11.1;;;5.8;;
25443;SDS011;13368;52.346;4.678;2024-02-26T16:45:00;8.8;;;5.4;;
25443;SDS011;13368;52.346;4.678;2024-02-26T16:50:00;9.3;;;5.2;;
25443;SDS011;13368;52.346;4.678;2024-02-26T16:55:00;8.8;;;5.1;;
25443;SDS011;13368;52.346;4.678;2024-02-26T17:00:00;10.3;;;5.9;;
25443;SDS011;13368;52.346;4.678;2024-02-26T17:05:00;10.0;;;4.9;;
25443;SDS011;13368;52.346;4.678;2024-02-26T17:10:00;7.5;;;5.2;;
25443;SDS011;13368;52.346;4.678;2024-02-26T17:15:00;6.8;;;4.8;;
25443;SDS011;13368;52.346;4.678;2024-02-26T17:20:00;7.7;;;4.4;;
25443;SDS011;13368;52.346;4.678;2024-02-26T17:25:00;8.4;;;4.4;;
25443;SDS011;13368;52.346;4.678;2024-02-26T17:30:00;6.9;;;4.9;;
25443;SDS011;13368;52.346;4.678;2024-02-26T17:35:00;9.4;;;5.1;;
25443;SDS011;13368;52.346;4.678;2024-02-26T17:40:00;6.8;;;4.2;;
25443;SDS011;13368;52.346;4.678;2024-02-26T17:45:00;7.0;;;4.7;;
25443;SDS011;13368;52.346;4.678;2024-02-26T17:50:00;5.2;;;4.3;;
25443;SDS011;13368;52.346;4.678;2024-02-26T17:55:00;6.1;;;3.8;;
25443;SDS011;13368;52.346;4.678;2024-02-26T18:00:00;8.4;;;4.2;;
25443;SDS011;13368;52.346;4.678;2024-02-26T18:05:00;15.3;;;4.8;;
25443;SDS011;13368;52.346;4.678;2024-02-26T18:10:00;7.9;;;4.4;;
25443;SDS011;13368;52.346;4.678;2024-02-26T18:15:00;9.0;;;4.1;;
25443;SDS011;13368;52.346;4.678;2024-02-26T18:20:00;5.7;;;3.8;;
25443;SDS011;13368;52.346;4.678;2024-02-26T18:25:00;3.7;;;2.9;;
25443;SDS011;13368;52.346;4.678;2024-02-26T18:30:00;6.8;;;3.3;;
25443;SDS011;13368;52.346;4.678;2024-02-26T18:35:01;unavailable;;;unavailable;;
25443;SDS011;13368;52.346;4.678;2024-02-26T18:40:00;6.9;;;3.7;;
25443;SDS011;13368;52.346;4.678;2024-02-26T18:45:00;6.2;;;3.8;;
25443;SDS011;13368;52.346;4.678;2024-02-26T18:50:00;6.2;;;3.6;;
25443;SDS011;13368;52.346;4.678;2024-02-26T18:55:00;5.5;;;3.4;;
25443;SDS011;13368;52.346;4.678;2024-02-26T19:00:00;6.6;;;3.7;;
25443;SDS011;13368;52.346;4.678;2024-02-26T19:05:00;4.8;;;3.2;;
25443;SDS011;13368;52.346;4.678;2024-02-26T19:10:00;6.3;;;3.7;;
25443;SDS011;13368;52.346;4.678;2024-02-26T19:15:00;7.7;;;3.8;;
25443;SDS011;13368;52.346;4.678;2024-02-26T19:20:00;5.1;;;3.9;;
25443;SDS011;13368;52.346;4.678;2024-02-26T19:25:00;4.7;;;3.4;;
25443;SDS011;13368;52.346;4.678;2024-02-26T19:30:00;6.2;;;3.4;;
25443;SDS011;13368;52.346;4.678;2024-02-26T19:35:00;7.2;;;3.2;;
25443;SDS011;13368;52.346;4.678;2024-02-26T19:40:00;5.8;;;3.6;;
25443;SDS011;13368;52.346;4.678;2024-02-26T19:45:00;4.4;;;3.6;;
25443;SDS011;13368;52.346;4.678;2024-02-26T19:50:00;6.4;;;4.2;;
25443;SDS011;13368;52.346;4.678;2024-02-26T19:55:00;7.4;;;3.9;;
25443;SDS011;13368;52.346;4.678;2024-02-26T20:00:00;5.3;;;3.8;;
25443;SDS011;13368;52.346;4.678;2024-02-26T20:05:00;8.2;;;4.1;;
25443;SDS011;13368;52.346;4.678;2024-02-26T20:10:00;7.1;;;4.9;;
25443;SDS011;13368;52.346;4.678;2024-02-26T20:15:00;8.0;;;5.1;;
25443;SDS011;13368;52.346;4.678;2024-02-26T20:20:00;7.3;;;4.5;;
25443;SDS011;13368;52.346;4.678;2024-02-26T20:25:00;7.5;;;4.0;;
25443;SDS011;13368;52.346;4.678;2024-02-26T20:30:00;7.5;;;4.0;;
25443;SDS011;13368;52.346;4.678;2024-02-26T20:35:00;5.5;;;3.8;;
25443;SDS011;13368;52.346;4.678;2024-02-26T20:40:00;8.5;;;4.2;;
25443;SDS011;13368;52.346;4.678;2024-02-26T20:45:00;7.3;;;3.5;;
25443;SDS011;13368;52.346;4.678;2024-02-26T20:50:00;6.6;;;3.8;;
25443;SDS011;13368;52.346;4.678;2024-02-26T20:55:00;9.1;;;4.7;;
25443;SDS011;13368;52.346;4.678;2024-02-26T21:00:00;6.0;;;4.2;;
25443;SDS011;13368;52.346;4.678;2024-02-26T21:05:00;4.6;;;3.9;;
25443;SDS011;13368;52.346;4.678;2024-02-26T21:10:00;8.6;;;4.6;;
25443;SDS011;13368;52.346;4.678;2024-02-26T21:15:00;7.6;;;4.3;;
25443;SDS011;13368;52.346;4.678;2024-02-26T21:20:00;6.7;;;3.7;;
25443;SDS011;13368;52.346;4.678;2024-02-26T21:25:00;6.3;;;4.3;;
25443;SDS011;13368;52.346;4.678;2024-02-26T21:30:00;7.2;;;3.9;;
25443;SDS011;13368;52.346;4.678;2024-02-26T21:35:00;9.0;;;3.7;;
25443;SDS011;13368;52.346;4.678;2024-02-26T21:40:00;6.0;;;4.3;;
25443;SDS011;13368;52.346;4.678;2024-02-26T21:45:00;8.0;;;4.4;;
25443;SDS011;13368;52.346;4.678;2024-02-26T21:50:00;7.3;;;4.4;;
25443;SDS011;13368;52.346;4.678;2024-02-26T21:55:00;5.1;;;4.2;;
25443;SDS011;13368;52.346;4.678;2024-02-26T22:00:00;7.0;;;4.2;;
25443;SDS011;13368;52.346;4.678;2024-02-26T22:05:00;10.2;;;3.9;;
25443;SDS011;13368;52.346;4.678;2024-02-26T22:10:00;7.9;;;4.2;;
25443;SDS011;13368;52.346;4.678;2024-02-26T22:15:00;6.5;;;4.0;;
25443;SDS011;13368;52.346;4.678;2024-02-26T22:20:00;8.5;;;4.5;;
25443;SDS011;13368;52.346;4.678;2024-02-26T22:25:00;7.2;;;4.6;;
25443;SDS011;13368;52.346;4.678;2024-02-26T22:30:00;6.1;;;4.3;;
25443;SDS011;13368;52.346;4.678;2024-02-26T22:35:00;8.6;;;5.1;;
25443;SDS011;13368;52.346;4.678;2024-02-26T22:40:00;6.6;;;4.6;;
25443;SDS011;13368;52.346;4.678;2024-02-26T22:45:00;5.8;;;4.3;;
25443;SDS011;13368;52.346;4.678;2024-02-26T22:50:00;6.7;;;4.5;;
25443;SDS011;13368;52.346;4.678;2024-02-26T22:55:00;7.8;;;4.3;;
25443;SDS011;13368;52.346;4.678;2024-02-26T23:00:00;8.7;;;5.4;;
25443;SDS011;13368;52.346;4.678;2024-02-26T23:05:00;7.9;;;5.7;;
25443;SDS011;13368;52.346;4.678;2024-02-26T23:10:00;7.1;;;5.0;;
25443;SDS011;13368;52.346;4.678;2024-02-26T23:15:00;5.8;;;4.6;;
25443;SDS011;13368;52.346;4.678;2024-02-26T23:20:00;6.5;;;4.4;;
25443;SDS011;13368;52.346;4.678;2024-02-26T23:25:00;6.7;;;5.2;;
25443;SDS011;13368;52.346;4.678;2024-02-26T23:30:00;8.3;;;5.4;;
25443;SDS011;13368;52.346;4.678;2024-02-26T23:35:00;8.7;;;4.8;;
25443;SDS011;13368;52.346;4.678;2024-02-26T23:40:00;7.6;;;4.4;;
25443;SDS011;13368;52.346;4.678;2024-02-26T23:45:00;6.5;;;5.0;;
25443;SDS011;13368;52.346;4.678;2024-02-26T23:50:00;7.7;;;4.6;;
25443;SDS011;13368;52.346;4.678;2024-02-26T23:55:00;7.7;;;4.9;;
